createdAt,value
2023-01-18T00:00:31.408Z,100.00
2023-01-18T00:02:59.326Z,100.00
2023-01-18T00:05:27.189Z,100.00
2023-01-18T00:07:56.345Z,100.00
2023-01-18T00:10:24.534Z,100.00
2023-01-18T00:12:52.066Z,100.00
2023-01-18T00:15:19.569Z,100.00
2023-01-18T00:17:51.491Z,100.00
2023-01-18T00:20:22.532Z,100.00
2023-01-18T00:22:50.905Z,100.00
2023-01-18T00:25:20.515Z,100.00
2023-01-18T00:27:49.874Z,100.00
2023-01-18T00:30:19.032Z,100.00
2023-01-18T00:32:46.508Z,100.00
2023-01-18T00:35:15.633Z,100.00
2023-01-18T00:37:45.126Z,100.00
2023-01-18T00:40:13.019Z,100.00
2023-01-18T00:43:00.555Z,100.00
2023-01-18T00:45:28.177Z,100.00
2023-01-18T00:47:55.798Z,100.00
2023-01-18T00:50:23.522Z,100.00
2023-01-18T00:52:56.654Z,100.00
2023-01-18T00:55:24.588Z,100.00
2023-01-18T00:57:53.488Z,100.00
2023-01-18T01:00:26.728Z,100.00
2023-01-18T01:02:54.417Z,100.00
2023-01-18T01:05:41.361Z,100.00
2023-01-18T01:08:17.290Z,100.00
2023-01-18T01:10:46.249Z,100.00
2023-01-18T01:13:34.122Z,100.00
2023-01-18T01:16:23.712Z,100.00
2023-01-18T01:19:09.353Z,100.00
2023-01-18T01:21:54.635Z,100.00
2023-01-18T01:24:39.835Z,100.00
2023-01-18T01:27:07.590Z,100.00
2023-01-18T01:29:36.552Z,100.00
2023-01-18T01:32:04.533Z,100.00
2023-01-18T01:34:32.397Z,100.00
2023-01-18T01:36:59.957Z,100.00
2023-01-18T01:39:27.467Z,100.00
2023-01-18T01:41:55.009Z,100.00
2023-01-18T01:44:45.650Z,100.00
2023-01-18T01:47:19.348Z,100.00
2023-01-18T01:49:49.988Z,100.00
2023-01-18T01:52:21.818Z,100.00
2023-01-18T01:54:55.170Z,100.00
2023-01-18T01:57:26.999Z,100.00
2023-01-18T02:00:00.847Z,100.00
2023-01-18T02:02:31.541Z,100.00
2023-01-18T02:05:00.773Z,100.00
2023-01-18T02:07:28.840Z,100.00
2023-01-18T02:09:57.158Z,100.00
2023-01-18T02:12:24.850Z,100.00
2023-01-18T02:14:53.306Z,100.00
2023-01-18T02:17:35.240Z,100.00
2023-01-18T02:20:53.054Z,100.00
2023-01-18T02:23:33.996Z,100.00
2023-01-18T02:26:35.154Z,100.00
2023-01-18T02:29:12.538Z,100.00
2023-01-18T02:31:53.978Z,100.00
2023-01-18T02:34:31.136Z,100.00
2023-01-18T02:37:07.586Z,100.00
2023-01-18T02:39:39.913Z,100.00
2023-01-18T02:42:33.050Z,100.00
2023-01-18T02:45:23.464Z,100.00
2023-01-18T02:47:52.600Z,100.00
2023-01-18T02:50:24.996Z,100.00
2023-01-18T02:52:53.580Z,100.00
2023-01-18T02:55:31.363Z,100.00
2023-01-18T02:58:05.532Z,100.00
2023-01-18T03:00:37.947Z,100.00
2023-01-18T03:03:10.861Z,100.00
2023-01-18T03:05:39.596Z,100.00
2023-01-18T03:08:11.865Z,100.00
2023-01-18T03:10:50.221Z,100.00
2023-01-18T03:13:26.488Z,100.00
2023-01-18T03:16:00.038Z,100.00
2023-01-18T03:18:35.948Z,100.00
2023-01-18T03:21:05.575Z,100.00
2023-01-18T03:23:38.224Z,100.00
2023-01-18T03:26:07.896Z,100.00
2023-01-18T03:28:56.021Z,100.00
2023-01-18T03:31:48.599Z,100.00
2023-01-18T03:34:22.998Z,100.00
2023-01-18T03:36:53.594Z,100.00
2023-01-18T03:39:28.203Z,100.00
2023-01-18T03:42:02.250Z,100.00
2023-01-18T03:44:36.656Z,100.00
2023-01-18T03:47:07.549Z,100.00
2023-01-18T03:49:36.081Z,100.00
2023-01-18T03:52:14.341Z,100.00
2023-01-18T03:54:52.340Z,100.00
2023-01-18T03:57:25.809Z,100.00
2023-01-18T03:59:53.373Z,100.00
2023-01-18T04:02:24.056Z,100.00
2023-01-18T04:04:57.414Z,100.00
2023-01-18T04:07:26.511Z,100.00
2023-01-18T04:09:54.119Z,100.00
2023-01-18T04:12:21.644Z,100.00
2023-01-18T04:14:49.144Z,100.00
2023-01-18T04:17:17.207Z,100.00
2023-01-18T04:19:46.560Z,100.00
2023-01-18T04:22:14.613Z,100.00
2023-01-18T04:24:42.108Z,100.00
2023-01-18T04:27:09.834Z,100.00
2023-01-18T04:29:37.493Z,100.00
2023-01-18T04:32:06.415Z,100.00
2023-01-18T04:34:34.078Z,100.00
2023-01-18T04:37:02.939Z,100.00
2023-01-18T04:39:30.422Z,100.00
2023-01-18T04:41:57.930Z,100.00
2023-01-18T04:44:25.592Z,100.00
2023-01-18T04:46:53.133Z,100.00
2023-01-18T04:49:20.719Z,100.00
2023-01-18T04:51:48.661Z,100.00
2023-01-18T04:54:19.025Z,100.00
2023-01-18T04:56:46.638Z,100.00
2023-01-18T04:59:16.551Z,100.00
2023-01-18T05:01:44.469Z,100.00
2023-01-18T05:04:12.034Z,100.00
2023-01-18T05:06:39.564Z,100.00
2023-01-18T05:09:07.073Z,100.00
2023-01-18T05:11:36.019Z,100.00
2023-01-18T05:14:03.676Z,100.00
2023-01-18T05:16:31.257Z,100.00
2023-01-18T05:18:58.952Z,100.00
2023-01-18T05:21:26.573Z,100.00
2023-01-18T05:23:54.720Z,100.00
2023-01-18T05:26:24.433Z,100.00
2023-01-18T05:28:57.778Z,100.00
2023-01-18T05:31:25.789Z,100.00
2023-01-18T05:33:53.588Z,100.00
2023-01-18T05:36:21.359Z,100.00
2023-01-18T05:38:48.955Z,100.00
2023-01-18T05:41:16.489Z,100.00
2023-01-18T05:43:44.410Z,100.00
2023-01-18T05:46:13.430Z,100.00
2023-01-18T05:48:40.976Z,100.00
2023-01-18T05:51:11.089Z,100.00
2023-01-18T05:53:39.726Z,100.00
2023-01-18T05:56:08.666Z,100.00
2023-01-18T05:58:36.551Z,100.00
2023-01-18T06:01:04.466Z,100.00
2023-01-18T06:03:33.360Z,100.00
2023-01-18T06:06:01.721Z,100.00
2023-01-18T06:08:29.311Z,100.00
2023-01-18T06:10:58.489Z,100.00
2023-01-18T06:13:28.427Z,100.00
2023-01-18T06:15:56.721Z,100.00
2023-01-18T06:18:25.604Z,100.00
2023-01-18T06:20:55.683Z,100.00
2023-01-18T06:23:23.184Z,100.00
2023-01-18T06:25:51.053Z,100.00
2023-01-18T06:28:20.767Z,100.00
2023-01-18T06:30:48.697Z,100.00
2023-01-18T06:33:16.390Z,100.00
2023-01-18T06:35:44.221Z,100.00
2023-01-18T06:38:13.959Z,100.00
2023-01-18T06:40:41.502Z,100.00
2023-01-18T06:43:10.304Z,100.00
2023-01-18T06:45:37.874Z,100.00
2023-01-18T06:48:05.719Z,100.00
2023-01-18T06:50:33.901Z,100.00
2023-01-18T06:53:01.549Z,100.00
2023-01-18T06:55:30.506Z,100.00
2023-01-18T06:57:58.024Z,100.00
2023-01-18T07:00:25.716Z,100.00
2023-01-18T07:02:53.782Z,100.00
2023-01-18T07:05:21.768Z,100.00
2023-01-18T07:07:49.449Z,100.00
2023-01-18T07:10:17.562Z,100.00
2023-01-18T07:12:48.764Z,100.00
2023-01-18T07:15:21.998Z,100.00
2023-01-18T07:17:51.143Z,100.00
2023-01-18T07:20:20.066Z,100.00
2023-01-18T07:22:51.580Z,100.00
2023-01-18T07:25:20.641Z,100.00
2023-01-18T07:27:50.127Z,100.00
2023-01-18T07:30:18.426Z,100.00
2023-01-18T07:32:49.638Z,100.00
2023-01-18T07:35:18.500Z,100.00
2023-01-18T07:37:49.129Z,100.00
2023-01-18T07:40:17.112Z,100.00
2023-01-18T07:42:44.776Z,100.00
2023-01-18T07:45:14.361Z,100.00
2023-01-18T07:47:42.095Z,100.00
2023-01-18T07:50:11.201Z,100.00
2023-01-18T07:52:38.695Z,100.00
2023-01-18T07:55:07.219Z,100.00
2023-01-18T07:57:35.038Z,100.00
2023-01-18T08:00:02.764Z,100.00
2023-01-18T08:02:42.109Z,100.00
2023-01-18T08:05:10.803Z,100.00
2023-01-18T08:07:38.360Z,100.00
2023-01-18T08:10:06.657Z,100.00
2023-01-18T08:12:34.404Z,100.00
2023-01-18T08:15:01.986Z,100.00
2023-01-18T08:17:30.859Z,100.00
2023-01-18T08:19:59.681Z,100.00
2023-01-18T08:22:27.190Z,100.00
2023-01-18T08:24:54.710Z,100.00
2023-01-18T08:27:22.523Z,100.00
2023-01-18T08:29:50.068Z,100.00
2023-01-18T08:32:17.888Z,100.00
2023-01-18T08:34:45.923Z,100.00
2023-01-18T08:37:14.816Z,100.00
2023-01-18T08:39:42.323Z,100.00
2023-01-18T08:42:12.777Z,100.00
2023-01-18T08:44:40.293Z,100.00
2023-01-18T08:47:07.875Z,100.00
2023-01-18T08:49:35.764Z,100.00
2023-01-18T08:52:03.362Z,100.00
2023-01-18T08:54:32.179Z,100.00
2023-01-18T08:56:59.695Z,100.00
2023-01-18T08:59:27.298Z,100.00
2023-01-18T09:01:54.885Z,100.00
2023-01-18T09:04:22.801Z,100.00
2023-01-18T09:06:51.481Z,100.00
2023-01-18T09:09:19.696Z,100.00
2023-01-18T09:11:51.328Z,100.00
2023-01-18T09:14:19.173Z,100.00
2023-01-18T09:16:46.806Z,100.00
2023-01-18T09:19:15.106Z,100.00
2023-01-18T09:21:45.010Z,100.00
2023-01-18T09:24:12.949Z,100.00
2023-01-18T09:26:40.860Z,100.00
2023-01-18T09:29:09.696Z,100.00
2023-01-18T09:31:37.278Z,100.00
2023-01-18T09:34:18.449Z,100.00
2023-01-18T09:36:46.781Z,100.00
2023-01-18T09:39:14.330Z,100.00
2023-01-18T09:41:44.351Z,100.00
2023-01-18T09:44:21.499Z,100.00
2023-01-18T09:46:54.095Z,100.00
2023-01-18T09:49:27.701Z,100.00
2023-01-18T09:52:08.467Z,100.00
2023-01-18T09:54:42.921Z,100.00
2023-01-18T09:57:21.786Z,100.00
2023-01-18T09:59:55.660Z,100.00
2023-01-18T10:02:27.077Z,100.00
2023-01-18T10:04:57.881Z,100.00
2023-01-18T10:07:30.278Z,100.00
2023-01-18T10:10:01.479Z,100.00
2023-01-18T10:12:37.630Z,100.00
2023-01-18T10:15:17.323Z,100.00
2023-01-18T10:17:46.597Z,100.00
2023-01-18T10:20:16.494Z,100.00
2023-01-18T10:22:50.258Z,100.00
2023-01-18T10:25:25.461Z,100.00
2023-01-18T10:28:18.665Z,100.00
2023-01-18T10:31:01.642Z,100.00
2023-01-18T10:33:32.228Z,100.00
2023-01-18T10:36:04.927Z,100.00
2023-01-18T10:38:32.689Z,100.00
2023-01-18T10:41:02.528Z,100.00
2023-01-18T10:43:32.147Z,100.00
2023-01-18T10:46:01.083Z,100.00
2023-01-18T10:48:31.917Z,100.00
2023-01-18T10:51:01.485Z,100.00
2023-01-18T10:53:32.466Z,100.00
2023-01-18T10:56:05.724Z,100.00
2023-01-18T10:58:40.596Z,100.00
2023-01-18T11:01:16.125Z,100.00
2023-01-18T11:03:50.338Z,100.00
2023-01-18T11:06:20.533Z,100.00
2023-01-18T11:08:48.866Z,100.00
2023-01-18T11:11:20.107Z,100.00
2023-01-18T11:13:49.070Z,100.00
2023-01-18T11:16:20.748Z,100.00
2023-01-18T11:18:57.972Z,100.00
2023-01-18T11:21:26.929Z,100.00
2023-01-18T11:23:55.419Z,100.00
2023-01-18T11:26:26.038Z,100.00
2023-01-18T11:28:59.438Z,100.00
2023-01-18T11:31:31.010Z,100.00
2023-01-18T11:34:02.702Z,100.00
2023-01-18T11:36:39.280Z,100.00
2023-01-18T11:39:40.358Z,100.00
2023-01-18T11:42:27.146Z,100.00
2023-01-18T11:45:12.559Z,100.00
2023-01-18T11:48:03.584Z,100.00
2023-01-18T11:50:36.814Z,100.00
2023-01-18T11:53:16.079Z,100.00
2023-01-18T11:55:54.135Z,100.00
2023-01-18T11:58:25.989Z,100.00
2023-01-18T12:01:05.338Z,100.00
2023-01-18T12:03:48.980Z,100.00
2023-01-18T12:06:28.552Z,100.00
2023-01-18T12:09:10.648Z,100.00
2023-01-18T12:11:51.123Z,100.00
2023-01-18T12:14:42.324Z,100.00
2023-01-18T12:17:26.951Z,100.00
2023-01-18T12:20:19.951Z,100.00
2023-01-18T12:23:04.551Z,100.00
2023-01-18T12:26:00.303Z,99.53
2023-01-18T12:28:53.908Z,99.59
2023-01-18T12:31:34.767Z,98.86
2023-01-18T12:34:12.520Z,98.04
2023-01-18T12:36:56.313Z,97.81
2023-01-18T12:39:44.861Z,97.72
2023-01-18T12:42:21.608Z,97.08
2023-01-18T12:45:05.289Z,97.11
2023-01-18T12:47:38.266Z,96.43
2023-01-18T12:50:15.543Z,97.06
2023-01-18T12:52:50.455Z,96.12
2023-01-18T12:55:23.707Z,96.44
2023-01-18T12:57:55.259Z,95.46
2023-01-18T13:00:31.780Z,95.53
2023-01-18T13:02:59.903Z,95.35
2023-01-18T13:05:36.023Z,95.51
2023-01-18T13:08:11.881Z,94.94
2023-01-18T13:10:40.220Z,95.46
2023-01-18T13:13:13.105Z,94.93
2023-01-18T13:15:49.217Z,95.41
2023-01-18T13:18:26.244Z,95.33
2023-01-18T13:21:07.526Z,94.60
2023-01-18T13:23:45.684Z,93.98
2023-01-18T13:26:23.258Z,94.26
2023-01-18T13:29:17.508Z,94.46
2023-01-18T13:31:53.473Z,95.20
2023-01-18T13:34:30.153Z,94.07
2023-01-18T13:37:13.999Z,92.89
2023-01-18T13:39:49.691Z,92.68
2023-01-18T13:42:38.428Z,90.69
2023-01-18T13:45:19.028Z,90.74
2023-01-18T13:48:00.860Z,89.81
2023-01-18T13:50:52.870Z,89.77
2023-01-18T13:53:34.891Z,89.35
2023-01-18T13:56:37.405Z,89.02
2023-01-18T13:59:23.486Z,89.02
2023-01-18T14:01:53.445Z,88.54
2023-01-18T14:04:29.369Z,87.96
2023-01-18T14:07:05.157Z,86.25
2023-01-18T14:09:39.861Z,86.03
2023-01-18T14:12:10.465Z,85.50
2023-01-18T14:14:54.584Z,84.79
2023-01-18T14:17:25.031Z,84.83
2023-01-18T14:20:27.921Z,85.04
2023-01-18T14:23:11.148Z,83.63
2023-01-18T14:25:53.944Z,84.17
2023-01-18T14:28:28.713Z,83.08
2023-01-18T14:30:59.799Z,83.61
2023-01-18T14:33:32.941Z,83.03
2023-01-18T14:36:01.934Z,82.42
2023-01-18T14:38:30.499Z,82.55
2023-01-18T14:41:00.371Z,82.28
2023-01-18T14:43:32.609Z,82.07
2023-01-18T14:46:03.348Z,82.46
2023-01-18T14:48:34.525Z,81.48
2023-01-18T14:51:04.035Z,82.10
2023-01-18T14:53:34.408Z,82.47
2023-01-18T14:56:05.183Z,82.63
2023-01-18T14:58:37.743Z,82.50
2023-01-18T15:01:09.105Z,82.93
2023-01-18T15:03:37.517Z,82.56
2023-01-18T15:06:13.763Z,83.05
2023-01-18T15:08:43.110Z,83.15
2023-01-18T15:11:11.794Z,83.68
2023-01-18T15:13:49.446Z,83.66
2023-01-18T15:16:21.425Z,83.78
2023-01-18T15:18:50.742Z,84.66
2023-01-18T15:21:23.194Z,84.84
2023-01-18T15:23:53.561Z,84.93
2023-01-18T15:26:35.271Z,85.48
2023-01-18T15:29:13.584Z,85.80
2023-01-18T15:31:53.722Z,85.80
2023-01-18T15:34:28.930Z,85.87
2023-01-18T15:36:58.261Z,86.52
2023-01-18T15:39:25.982Z,86.80
2023-01-18T15:41:57.332Z,87.32
2023-01-18T15:44:35.273Z,87.55
2023-01-18T15:47:14.332Z,88.45
2023-01-18T15:49:44.614Z,88.58
2023-01-18T15:52:12.191Z,89.13
2023-01-18T15:54:40.097Z,89.62
2023-01-18T15:57:14.063Z,89.70
2023-01-18T15:59:43.493Z,90.23
2023-01-18T16:02:18.435Z,90.67
2023-01-18T16:04:46.439Z,91.14
2023-01-18T16:07:37.562Z,92.20
2023-01-18T16:10:27.881Z,92.84
2023-01-18T16:12:57.025Z,93.58
2023-01-18T16:15:28.377Z,93.95
2023-01-18T16:18:02.613Z,94.33
2023-01-18T16:20:32.201Z,95.04
2023-01-18T16:23:08.468Z,95.71
2023-01-18T16:25:37.723Z,96.22
2023-01-18T16:28:05.869Z,97.05
2023-01-18T16:30:36.595Z,97.29
2023-01-18T16:33:10.441Z,97.82
2023-01-18T16:35:39.861Z,98.18
2023-01-18T16:38:12.267Z,98.59
2023-01-18T16:40:42.384Z,98.81
2023-01-18T16:43:22.916Z,99.74
2023-01-18T16:45:53.370Z,100.00
2023-01-18T16:48:22.880Z,100.00
2023-01-18T16:50:51.457Z,100.00
2023-01-18T16:53:19.541Z,100.00
2023-01-18T16:55:48.262Z,100.00
2023-01-18T16:58:18.300Z,100.00
2023-01-18T17:00:52.456Z,100.00
2023-01-18T17:03:21.377Z,100.00
2023-01-18T17:05:48.951Z,100.00
2023-01-18T17:08:17.157Z,100.00
2023-01-18T17:10:46.875Z,100.00
2023-01-18T17:13:14.597Z,100.00
2023-01-18T17:15:45.191Z,100.00
2023-01-18T17:18:15.474Z,100.00
2023-01-18T17:20:45.135Z,100.00
2023-01-18T17:23:14.953Z,100.00
2023-01-18T17:25:42.678Z,100.00
2023-01-18T17:28:12.541Z,100.00
2023-01-18T17:30:42.163Z,100.00
2023-01-18T17:33:16.568Z,100.00
2023-01-18T17:35:45.510Z,100.00
2023-01-18T17:38:23.220Z,100.00
2023-01-18T17:40:51.591Z,100.00
2023-01-18T17:43:32.607Z,100.00
2023-01-18T17:46:03.363Z,100.00
2023-01-18T17:48:30.975Z,100.00
2023-01-18T17:50:59.900Z,100.00
2023-01-18T17:53:27.436Z,100.00
2023-01-18T17:55:54.962Z,100.00
2023-01-18T17:58:22.574Z,100.00
2023-01-18T18:00:50.224Z,100.00
2023-01-18T18:03:17.935Z,100.00
2023-01-18T18:05:45.633Z,100.00
2023-01-18T18:08:14.499Z,100.00
2023-01-18T18:10:43.119Z,100.00
2023-01-18T18:13:10.689Z,100.00
2023-01-18T18:15:38.308Z,100.00
2023-01-18T18:18:12.277Z,100.00
2023-01-18T18:20:49.727Z,100.00
2023-01-18T18:23:18.589Z,100.00
2023-01-18T18:25:48.209Z,100.00
2023-01-18T18:28:15.767Z,100.00
2023-01-18T18:30:46.460Z,100.00
2023-01-18T18:33:13.954Z,100.00
2023-01-18T18:35:41.462Z,100.00
2023-01-18T18:38:09.473Z,100.00
2023-01-18T18:40:38.345Z,100.00
2023-01-18T18:43:06.152Z,100.00
2023-01-18T18:45:35.063Z,100.00
2023-01-18T18:48:02.638Z,100.00
2023-01-18T18:50:31.073Z,100.00
2023-01-18T18:52:59.607Z,100.00
2023-01-18T18:55:27.354Z,100.00
2023-01-18T18:57:56.237Z,100.00
2023-01-18T19:00:25.049Z,100.00
2023-01-18T19:02:52.811Z,100.00
2023-01-18T19:05:20.425Z,100.00
2023-01-18T19:07:52.146Z,100.00
2023-01-18T19:10:19.947Z,100.00
2023-01-18T19:12:47.482Z,100.00
2023-01-18T19:15:17.080Z,100.00
2023-01-18T19:17:44.715Z,100.00
2023-01-18T19:20:13.926Z,100.00
2023-01-18T19:22:41.533Z,100.00
2023-01-18T19:25:09.955Z,100.00
2023-01-18T19:27:37.484Z,100.00
2023-01-18T19:30:10.514Z,100.00
2023-01-18T19:32:40.833Z,100.00
2023-01-18T19:35:09.092Z,100.00
2023-01-18T19:37:36.644Z,100.00
2023-01-18T19:40:05.792Z,100.00
2023-01-18T19:42:33.327Z,100.00
2023-01-18T19:45:01.297Z,100.00
2023-01-18T19:47:30.079Z,100.00
2023-01-18T19:50:02.794Z,100.00
2023-01-18T19:52:30.896Z,100.00
2023-01-18T19:54:59.733Z,100.00
2023-01-18T19:57:27.782Z,100.00
2023-01-18T19:59:55.747Z,100.00
2023-01-18T20:02:23.793Z,100.00
2023-01-18T20:04:52.416Z,100.00
2023-01-18T20:07:21.273Z,100.00
2023-01-18T20:09:48.791Z,100.00
2023-01-18T20:12:16.334Z,100.00
2023-01-18T20:14:44.982Z,100.00
2023-01-18T20:17:14.295Z,100.00
2023-01-18T20:19:41.841Z,100.00
2023-01-18T20:22:09.902Z,100.00
2023-01-18T20:24:39.011Z,100.00
2023-01-18T20:27:15.901Z,100.00
2023-01-18T20:29:44.943Z,100.00
2023-01-18T20:32:16.813Z,100.00
2023-01-18T20:34:46.466Z,100.00
2023-01-18T20:37:14.531Z,100.00
2023-01-18T20:39:43.479Z,100.00
2023-01-18T20:42:11.282Z,100.00
2023-01-18T20:44:39.076Z,100.00
2023-01-18T20:47:06.998Z,100.00
2023-01-18T20:49:38.842Z,100.00
2023-01-18T20:52:07.670Z,100.00
2023-01-18T20:54:36.308Z,100.00
2023-01-18T20:57:05.534Z,100.00
2023-01-18T20:59:33.069Z,100.00
2023-01-18T21:02:00.866Z,100.00
2023-01-18T21:04:28.569Z,100.00
2023-01-18T21:06:57.207Z,100.00
2023-01-18T21:09:25.099Z,100.00
2023-01-18T21:11:52.900Z,100.00
2023-01-18T21:14:21.994Z,100.00
2023-01-18T21:16:49.624Z,100.00
2023-01-18T21:19:18.000Z,100.00
2023-01-18T21:21:45.807Z,100.00
2023-01-18T21:24:13.348Z,100.00
2023-01-18T21:26:41.177Z,100.00
2023-01-18T21:29:08.791Z,100.00
2023-01-18T21:31:39.452Z,100.00
2023-01-18T21:34:07.723Z,100.00
2023-01-18T21:36:35.260Z,100.00
2023-01-18T21:39:02.848Z,100.00
2023-01-18T21:41:48.149Z,100.00
2023-01-18T21:44:33.530Z,100.00
2023-01-18T21:47:02.513Z,100.00
2023-01-18T21:50:15.639Z,100.00
2023-01-18T21:52:53.118Z,100.00
2023-01-18T21:55:21.038Z,100.00
2023-01-18T21:58:09.367Z,100.00
2023-01-18T22:00:38.285Z,100.00
2023-01-18T22:03:07.691Z,100.00
2023-01-18T22:05:34.278Z,100.00
2023-01-18T22:08:02.041Z,100.00
2023-01-18T22:10:29.773Z,100.00
2023-01-18T22:12:57.365Z,100.00
2023-01-18T22:15:24.958Z,100.00
2023-01-18T22:17:52.451Z,100.00
2023-01-18T22:20:21.310Z,100.00
2023-01-18T22:22:49.452Z,100.00
2023-01-18T22:25:17.147Z,100.00
2023-01-18T22:27:44.681Z,100.00
2023-01-18T22:30:13.448Z,100.00
2023-01-18T22:32:40.967Z,100.00
2023-01-18T22:35:08.891Z,100.00
2023-01-18T22:37:37.741Z,100.00
2023-01-18T22:40:06.327Z,100.00
2023-01-18T22:42:35.355Z,100.00
2023-01-18T22:45:02.966Z,100.00
2023-01-18T22:47:30.696Z,100.00
2023-01-18T22:49:59.101Z,100.00
2023-01-18T22:52:26.623Z,100.00
2023-01-18T22:54:55.485Z,100.00
2023-01-18T22:57:23.436Z,100.00
2023-01-18T22:59:50.940Z,100.00
2023-01-18T23:02:18.545Z,100.00
2023-01-18T23:04:48.320Z,100.00
2023-01-18T23:07:17.372Z,100.00
2023-01-18T23:09:44.965Z,100.00
2023-01-18T23:12:13.818Z,100.00
2023-01-18T23:14:58.772Z,100.00
2023-01-18T23:17:42.976Z,100.00
2023-01-18T23:20:14.829Z,100.00
2023-01-18T23:22:42.612Z,100.00
2023-01-18T23:25:10.590Z,100.00
2023-01-18T23:27:39.446Z,100.00
2023-01-18T23:30:07.998Z,100.00
2023-01-18T23:32:37.246Z,100.00
2023-01-18T23:35:06.253Z,100.00
2023-01-18T23:37:34.339Z,100.00
2023-01-18T23:40:19.497Z,100.00
2023-01-18T23:43:06.029Z,100.00
2023-01-18T23:45:51.240Z,100.00
2023-01-18T23:48:38.161Z,100.00
2023-01-18T23:51:23.776Z,100.00
2023-01-18T23:54:09.004Z,100.00
2023-01-18T23:56:36.626Z,100.00
2023-01-18T23:59:05.501Z,100.00
